Time;durP1;ratioP1;P1;durP2;ratioP2;P2;SDS_P1;SDS_P2;PMS_P1;PMS_P2;Temp;Humidity;BMP_temperature;BMP_pressure;BME280_temperature;BME280_humidity;BME280_pressure;Samples;Min_cycle;Max_cycle;Signal;HPM_P1;HPM_P2
2022/04/01 00:05:40;;;;;;;1.80;1.25;;;;;;;;;;20829041;28;20085;-58
2022/04/01 00:15:42;;;;;;;1.20;0.98;;;;;;;;;;20828863;28;20041;-63
2022/04/01 00:25:45;;;;;;;1.88;1.40;;;;;;;;;;20860868;28;20136;-59
2022/04/01 00:35:47;;;;;;;1.83;1.00;;;;;;;;;;20828527;28;20054;-56
2022/04/01 00:45:49;;;;;;;2.33;1.30;;;;;;;;;;20841967;28;20180;-60
2022/04/01 00:55:51;;;;;;;2.83;1.50;;;;;;;;;;20843371;28;20109;-56
2022/04/01 01:05:54;;;;;;;3.58;1.85;;;;;;;;;;20842920;28;20120;-62
2022/04/01 01:15:56;;;;;;;2.38;1.50;;;;;;;;;;20842410;28;20517;-57
2022/04/01 01:26:00;;;;;;;4.15;2.33;;;;;;;;;;20841583;28;20417;-55
2022/04/01 01:36:04;;;;;;;2.78;1.75;;;;;;;;;;20840579;28;20057;-56
2022/04/01 01:46:07;;;;;;;3.28;1.67;;;;;;;;;;20839833;28;20132;-56
2022/04/01 01:56:10;;;;;;;2.70;1.60;;;;;;;;;;20840188;28;20191;-57
2022/04/01 02:06:14;;;;;;;6.57;4.40;;;;;;;;;;20837607;28;20058;-60
2022/04/01 02:16:18;;;;;;;2.83;1.98;;;;;;;;;;20869848;28;20060;-56
2022/04/01 02:26:23;;;;;;;;;;;;;;;;;;20836846;28;20054;-62
2022/04/01 02:36:25;;;;;;;2.67;1.90;;;;;;;;;;20835632;28;19921;-63
2022/04/01 02:46:28;;;;;;;2.22;1.63;;;;;;;;;;20834483;28;20049;-55
2022/04/01 02:56:34;;;;;;;2.95;1.63;;;;;;;;;;20834787;28;20056;-62
2022/04/01 03:06:38;;;;;;;2.85;1.63;;;;;;;;;;20833403;28;20417;-61
2022/04/01 03:16:43;;;;;;;2.03;1.40;;;;;;;;;;20864087;28;20053;-60
2022/04/01 03:26:47;;;;;;;3.58;1.98;;;;;;;;;;20831692;28;20065;-57
2022/04/01 03:36:49;;;;;;;3.65;2.10;;;;;;;;;;20861964;28;20049;-63
2022/04/01 03:47:01;;;;;;;4.38;2.10;;;;;;;;;;20829723;28;20045;-56
2022/04/01 03:57:04;;;;;;;4.45;2.40;;;;;;;;;;20830842;28;20587;-56
2022/04/01 04:07:07;;;;;;;2.03;1.25;;;;;;;;;;20829368;28;20072;-62
2022/04/01 04:17:14;;;;;;;0.70;0.60;;;;;;;;;;20828689;28;20073;-59
2022/04/01 04:27:18;;;;;;;2.58;0.80;;;;;;;;;;20828474;28;20498;-57
2022/04/01 04:37:22;;;;;;;0.40;0.40;;;;;;;;;;20828747;28;20056;-59
2022/04/01 04:47:28;;;;;;;0.52;0.40;;;;;;;;;;20827976;28;20129;-57
2022/04/01 04:57:31;;;;;;;1.10;0.40;;;;;;;;;;20828098;28;20049;-57
2022/04/01 05:07:42;;;;;;;2.90;0.52;;;;;;;;;;20827133;28;20053;-55
2022/04/01 05:17:49;;;;;;;0.95;0.40;;;;;;;;;;20827519;28;20534;-55
2022/04/01 05:27:53;;;;;;;1.75;0.50;;;;;;;;;;20833624;28;20055;-55
2022/04/01 05:37:57;;;;;;;1.00;0.50;;;;;;;;;;20871987;28;20108;-55
2022/04/01 05:47:59;;;;;;;1.65;0.70;;;;;;;;;;20839248;28;20053;-54
2022/04/01 05:58:05;;;;;;;1.98;0.80;;;;;;;;;;20839383;28;20052;-56
2022/04/01 06:08:18;;;;;;;4.22;0.90;;;;;;;;;;20837758;28;20387;-57
2022/04/01 06:18:44;;;;;;;1.98;0.60;;;;;;;;;;20838304;28;20060;-61
2022/04/01 06:28:49;;;;;;;2.80;0.75;;;;;;;;;;20835958;28;20049;-59
2022/04/01 06:39:10;;;;;;;2.13;0.90;;;;;;;;;;20833816;28;20045;-55
2022/04/01 06:49:12;;;;;;;2.33;0.98;;;;;;;;;;20834994;28;20088;-61
2022/04/01 06:59:14;;;;;;;4.97;1.38;;;;;;;;;;20864782;28;20140;-57
2022/04/01 07:09:16;;;;;;;1.77;1.08;;;;;;;;;;20833577;28;20414;-55
2022/04/01 07:19:22;;;;;;;3.17;1.10;;;;;;;;;;20833092;28;20045;-58
2022/04/01 07:29:25;;;;;;;5.45;1.60;;;;;;;;;;20832565;28;20536;-61
2022/04/01 07:39:27;;;;;;;4.55;1.30;;;;;;;;;;20831021;28;20477;-58
2022/04/01 07:49:32;;;;;;;3.57;1.00;;;;;;;;;;20829795;28;20098;-61
2022/04/01 07:59:35;;;;;;;4.40;0.90;;;;;;;;;;20829220;28;20063;-55
2022/04/01 08:09:37;;;;;;;3.92;2.03;;;;;;;;;;20827632;28;20053;-60
2022/04/01 08:19:42;;;;;;;3.95;0.70;;;;;;;;;;20827764;28;20092;-59
2022/04/01 08:29:44;;;;;;;1.35;0.65;;;;;;;;;;20828069;28;20110;-59
2022/04/01 08:39:47;;;;;;;1.90;0.80;;;;;;;;;;20828752;28;20052;-54
2022/04/01 08:49:49;;;;;;;2.20;1.00;;;;;;;;;;20827736;28;20561;-55
2022/04/01 08:59:51;;;;;;;2.38;0.90;;;;;;;;;;20829189;28;20417;-56
2022/04/01 09:10:00;;;;;;;2.13;1.00;;;;;;;;;;20843232;28;20049;-55
2022/04/01 09:20:07;;;;;;;2.42;0.88;;;;;;;;;;20842287;28;20049;-54
2022/04/01 09:30:15;;;;;;;1.50;0.80;;;;;;;;;;20841521;28;20065;-56
2022/04/01 09:40:20;;;;;;;2.25;1.10;;;;;;;;;;20862408;28;20049;-57
2022/04/01 09:50:26;;;;;;;2.63;0.97;;;;;;;;;;20844860;28;20052;-55
2022/04/01 10:00:29;;;;;;;1.77;0.73;;;;;;;;;;20870140;28;20053;-58
2022/04/01 10:10:31;;;;;;;4.53;1.02;;;;;;;;;;20847860;28;20053;-59
2022/04/01 10:20:38;;;;;;;3.10;1.20;;;;;;;;;;20870980;28;20084;-57
2022/04/01 10:30:41;;;;;;;1.25;0.80;;;;;;;;;;20899336;28;20044;-60
2022/04/01 10:40:45;;;;;;;3.33;1.00;;;;;;;;;;20905123;28;20056;-60
2022/04/01 11:01:27;;;;;;;2.08;0.82;;;;;;;;;;20916499;28;20049;-59
2022/04/01 11:11:29;;;;;;;2.22;1.17;;;;;;;;;;20916311;28;20412;-56
2022/04/01 11:21:31;;;;;;;5.10;2.30;;;;;;;;;;20913439;28;20060;-58
2022/04/01 11:31:41;;;;;;;2.05;1.20;;;;;;;;;;20914080;28;20048;-57
2022/04/01 11:41:48;;;;;;;3.78;1.30;;;;;;;;;;20911604;28;20622;-55
2022/04/01 11:51:50;;;;;;;2.63;1.00;;;;;;;;;;20911240;28;20095;-57
2022/04/01 12:01:55;;;;;;;2.67;1.00;;;;;;;;;;20911500;28;20400;-60
2022/04/01 12:11:58;;;;;;;2.30;1.00;;;;;;;;;;20912784;28;20053;-62
2022/04/01 12:22:01;;;;;;;2.50;1.10;;;;;;;;;;20911241;28;20052;-60
2022/04/01 12:32:05;;;;;;;2.35;1.10;;;;;;;;;;20910201;28;20118;-61
2022/04/01 12:42:08;;;;;;;2.67;1.30;;;;;;;;;;20926241;28;20045;-60
2022/04/01 12:52:17;;;;;;;2.90;1.00;;;;;;;;;;20926706;28;20084;-58
2022/04/01 13:02:26;;;;;;;2.28;1.30;;;;;;;;;;20927248;28;20049;-60
2022/04/01 13:12:39;;;;;;;2.63;1.55;;;;;;;;;;20925836;28;20052;-59
2022/04/01 13:22:42;;;;;;;3.50;1.50;;;;;;;;;;20924720;28;20061;-60
2022/04/01 13:32:44;;;;;;;3.13;1.15;;;;;;;;;;20923521;28;20136;-62
2022/04/01 13:42:46;;;;;;;3.47;1.30;;;;;;;;;;20922231;28;20045;-60
2022/04/01 13:52:49;;;;;;;3.42;1.30;;;;;;;;;;20922526;28;20053;-58
2022/04/01 14:02:51;;;;;;;4.95;1.20;;;;;;;;;;20922319;28;20056;-62
2022/04/01 14:12:52;;;;;;;1.90;1.05;;;;;;;;;;20919422;28;20479;-60
2022/04/01 14:22:58;;;;;;;4.30;1.30;;;;;;;;;;20921432;28;20500;-61
2022/04/01 14:32:59;;;;;;;1.75;1.10;;;;;;;;;;20919744;28;20432;-58
2022/04/01 14:43:05;;;;;;;1.52;1.00;;;;;;;;;;20918835;28;20049;-57
2022/04/01 14:53:08;;;;;;;3.88;1.10;;;;;;;;;;20918015;28;20409;-55
2022/04/01 15:03:10;;;;;;;1.92;0.82;;;;;;;;;;20917001;28;20493;-57
2022/04/01 15:13:13;;;;;;;1.67;0.88;;;;;;;;;;20915585;28;20413;-60
2022/04/01 15:23:15;;;;;;;2.03;1.00;;;;;;;;;;20913626;28;20139;-60
2022/04/01 15:33:26;;;;;;;3.95;1.40;;;;;;;;;;21068201;27;20144;-62
2022/04/01 15:43:29;;;;;;;2.50;1.00;;;;;;;;;;21066013;28;20147;-62
2022/04/01 15:53:31;;;;;;;1.60;0.90;;;;;;;;;;21066377;28;20099;-64
2022/04/01 16:03:34;;;;;;;1.90;1.25;;;;;;;;;;21066299;28;20193;-62
2022/04/01 16:13:37;;;;;;;1.70;0.85;;;;;;;;;;21063907;28;20098;-60
2022/04/01 16:23:39;;;;;;;1.77;1.00;;;;;;;;;;21062946;28;20052;-61
2022/04/01 16:33:41;;;;;;;1.65;1.00;;;;;;;;;;21062443;28;20401;-62
2022/04/01 16:43:44;;;;;;;1.58;0.90;;;;;;;;;;21011607;28;20052;-60
2022/04/01 16:53:46;;;;;;;1.90;1.15;;;;;;;;;;21005389;28;20048;-56
2022/04/01 17:03:47;;;;;;;2.30;0.90;;;;;;;;;;21004154;28;20071;-62
2022/04/01 17:13:49;;;;;;;2.05;1.23;;;;;;;;;;21003437;28;20049;-59
2022/04/01 17:23:52;;;;;;;1.48;1.00;;;;;;;;;;21001859;28;20052;-63
2022/04/01 17:33:57;;;;;;;2.47;1.00;;;;;;;;;;21001858;28;20048;-59
2022/04/01 17:44:00;;;;;;;1.60;0.80;;;;;;;;;;21001845;28;20048;-58
2022/04/01 17:54:01;;;;;;;2.75;1.00;;;;;;;;;;21113388;22;20460;-65
2022/04/01 18:04:04;;;;;;;2.95;1.10;;;;;;;;;;20672039;28;20061;-64
2022/04/01 18:14:06;;;;;;;1.75;1.00;;;;;;;;;;20673113;28;20114;-68
2022/04/01 18:24:08;;;;;;;2.00;0.93;;;;;;;;;;20671759;28;20081;-59
2022/04/01 18:34:13;;;;;;;2.95;1.35;;;;;;;;;;20669919;28;20046;-62
2022/04/01 18:44:14;;;;;;;1.67;1.00;;;;;;;;;;20669414;28;20109;-68
2022/04/01 18:54:17;;;;;;;2.70;1.38;;;;;;;;;;20668841;28;20058;-63
2022/04/01 19:04:24;;;;;;;4.72;1.75;;;;;;;;;;20667791;28;20050;-63
2022/04/01 19:14:26;;;;;;;7.20;2.55;;;;;;;;;;20667400;28;20092;-62
2022/04/01 19:24:29;;;;;;;2.42;1.27;;;;;;;;;;20665763;28;20057;-65
2022/04/01 19:34:31;;;;;;;3.75;2.00;;;;;;;;;;20667108;28;20483;-61
2022/04/01 19:44:34;;;;;;;4.00;2.08;;;;;;;;;;20666783;28;20503;-64
2022/04/01 19:54:36;;;;;;;5.97;1.80;;;;;;;;;;20666200;28;20138;-62
2022/04/01 20:04:38;;;;;;;4.05;1.85;;;;;;;;;;20666279;28;20503;-65
2022/04/01 20:14:40;;;;;;;2.45;1.50;;;;;;;;;;20672374;28;20086;-65
2022/04/01 20:24:41;;;;;;;2.60;1.58;;;;;;;;;;20681576;28;20200;-65
2022/04/01 20:34:43;;;;;;;3.28;1.38;;;;;;;;;;20680206;28;20058;-62
2022/04/01 20:44:46;;;;;;;2.58;1.20;;;;;;;;;;20679249;28;20054;-63
2022/04/01 20:54:51;;;;;;;2.72;1.40;;;;;;;;;;20679044;28;20046;-62
2022/04/01 21:04:53;;;;;;;3.23;1.83;;;;;;;;;;20677566;28;20478;-65
2022/04/01 21:14:55;;;;;;;3.70;1.90;;;;;;;;;;20677242;28;20043;-63
2022/04/01 21:25:01;;;;;;;3.05;1.55;;;;;;;;;;20679987;28;20050;-62
2022/04/01 21:35:05;;;;;;;2.25;1.30;;;;;;;;;;20682437;28;20483;-63
2022/04/01 21:45:07;;;;;;;3.28;1.60;;;;;;;;;;20686501;28;20082;-63
2022/04/01 21:55:10;;;;;;;3.10;1.55;;;;;;;;;;20682805;28;20058;-62
2022/04/01 22:05:13;;;;;;;2.45;1.30;;;;;;;;;;20680646;28;20050;-63
2022/04/01 22:15:16;;;;;;;3.78;1.58;;;;;;;;;;20680448;28;20395;-62
2022/04/01 22:25:19;;;;;;;3.25;1.65;;;;;;;;;;20680034;28;20050;-62
2022/04/01 22:35:21;;;;;;;3.35;1.52;;;;;;;;;;20681400;28;20054;-65
2022/04/01 22:45:24;;;;;;;2.53;1.50;;;;;;;;;;20678204;28;20050;-62
2022/04/01 22:55:26;;;;;;;2.63;1.17;;;;;;;;;;20670069;28;20520;-62
2022/04/01 23:05:30;;;;;;;2.53;1.20;;;;;;;;;;20670473;28;20058;-64
2022/04/01 23:15:32;;;;;;;3.50;1.45;;;;;;;;;;20671471;28;20056;-64
2022/04/01 23:25:35;;;;;;;2.38;1.05;;;;;;;;;;20671546;28;20109;-62
2022/04/01 23:35:37;;;;;;;1.98;1.00;;;;;;;;;;20673843;28;20054;-63
2022/04/01 23:45:39;;;;;;;2.72;1.08;;;;;;;;;;20680098;28;20137;-65
2022/04/01 23:55:41;;;;;;;2.60;1.17;;;;;;;;;;20688923;28;20058;-62
